Time;durP1;ratioP1;P1;durP2;ratioP2;P2;SDS_P1;SDS_P2;PMS_P1;PMS_P2;Temp;Humidity;BMP_temperature;BMP_pressure;BME280_temperature;BME280_humidity;BME280_pressure;Samples;Min_cycle;Max_cycle;Signal;HPM_P1;HPM_P2
2024/01/09 00:01:52;;;;;;;;;;;;;;;6.99;47.75;102701.00;4948804;27;130901;-63
2024/01/09 00:04:18;;;;;;;;;;;;;;;6.98;47.58;102702.88;4949388;27;98260;-66
2024/01/09 00:06:44;;;;;;;;;;;;;;;6.98;47.62;102697.50;4942163;27;98380;-63
2024/01/09 00:09:10;;;;;;;;;;;;;;;6.97;47.63;102706.56;4945216;27;98107;-63
2024/01/09 00:11:36;;;;;;;;;;;;;;;6.97;47.46;102703.06;4940370;27;107854;-63
2024/01/09 00:14:02;;;;;;;;;;;;;;;6.96;47.82;102696.88;4960099;27;99156;-66
2024/01/09 00:16:28;;;;;;;;;;;;;;;6.95;47.83;102692.50;4955976;27;98103;-66
2024/01/09 00:18:54;;;;;;;;;;;;;;;6.95;47.51;102691.69;4962712;27;116856;-66
2024/01/09 00:21:20;;;;;;;;;;;;;;;6.94;47.65;102688.19;4957072;27;113228;-65
2024/01/09 00:23:46;;;;;;;;;;;;;;;6.94;47.59;102685.50;4944395;27;98077;-63
2024/01/09 00:26:13;;;;;;;;;;;;;;;6.93;47.57;102683.84;4947682;27;99068;-66
2024/01/09 00:28:39;;;;;;;;;;;;;;;6.93;47.62;102691.88;4959857;27;98064;-67
2024/01/09 00:31:05;;;;;;;;;;;;;;;6.93;48.00;102688.38;4945799;27;119432;-66
2024/01/09 00:33:32;;;;;;;;;;;;;;;6.92;47.72;102684.00;4958232;27;113865;-64
2024/01/09 00:35:58;;;;;;;;;;;;;;;6.89;47.62;102686.06;4945252;27;108555;-63
2024/01/09 00:38:24;;;;;;;;;;;;;;;6.90;47.58;102692.25;4946922;28;98663;-67
2024/01/09 00:40:50;;;;;;;;;;;;;;;6.89;47.71;102694.13;4955766;27;126203;-66
2024/01/09 00:43:16;;;;;;;;;;;;;;;6.89;47.56;102701.34;4944225;28;128580;-63
2024/01/09 00:45:42;;;;;;;;;;;;;;;6.88;47.52;102705.03;4965505;27;98122;-63
2024/01/09 00:48:08;;;;;;;;;;;;;;;6.86;47.55;102705.22;4947315;27;98019;-63
2024/01/09 00:50:34;;;;;;;;;;;;;;;6.85;47.50;102706.25;4956945;27;97935;-63
2024/01/09 00:52:59;;;;;;;;;;;;;;;6.84;47.60;102706.44;4942816;27;113244;-66
2024/01/09 00:55:25;;;;;;;;;;;;;;;6.83;47.48;102702.91;4943028;27;129832;-67
2024/01/09 00:57:52;;;;;;;;;;;;;;;6.82;47.83;102703.09;4943950;27;102369;-67
2024/01/09 01:00:18;;;;;;;;;;;;;;;6.81;47.70;102702.28;4941730;27;111070;-63
2024/01/09 01:02:44;;;;;;;;;;;;;;;6.80;47.63;102697.94;4959413;27;98152;-63
2024/01/09 01:05:15;;;;;;;;;;;;;;;6.80;47.56;102700.63;4947345;27;98360;-63
2024/01/09 01:07:41;;;;;;;;;;;;;;;6.78;47.65;102697.28;4940083;27;98130;-67
2024/01/09 01:10:07;;;;;;;;;;;;;;;6.78;47.49;102693.78;4943682;28;108418;-64
2024/01/09 01:12:33;;;;;;;;;;;;;;;6.76;47.66;102695.78;4943678;27;123390;-64
2024/01/09 01:14:59;;;;;;;;;;;;;;;6.76;47.57;102698.47;4946449;27;98276;-64
2024/01/09 01:17:25;;;;;;;;;;;;;;;6.74;47.61;102690.63;4943691;27;98473;-63
2024/01/09 01:19:51;;;;;;;;;;;;;;;6.73;47.53;102682.78;4941293;27;98056;-63
2024/01/09 01:22:17;;;;;;;;;;;;;;;6.73;47.53;102688.16;4946930;27;117714;-66
2024/01/09 01:24:43;;;;;;;;;;;;;;;6.72;47.63;102698.03;4959964;27;99327;-66
2024/01/09 01:27:09;;;;;;;;;;;;;;;6.71;47.64;102695.53;4961034;28;101495;-64
2024/01/09 01:29:35;;;;;;;;;;;;;;;6.71;47.46;102698.22;4948671;27;105307;-66
2024/01/09 01:32:01;;;;;;;;;;;;;;;6.69;47.56;102695.75;4959251;28;100180;-66
2024/01/09 01:34:27;;;;;;;;;;;;;;;6.69;47.36;102690.38;4956747;27;98019;-63
2024/01/09 01:36:53;;;;;;;;;;;;;;;6.69;47.94;102700.28;4945634;27;97950;-66
2024/01/09 01:39:19;;;;;;;;;;;;;;;6.69;47.60;102700.28;4946561;27;128489;-63
2024/01/09 01:41:45;;;;;;;;;;;;;;;6.68;47.59;102693.22;4962765;27;98444;-63
2024/01/09 01:44:16;;;;;;;;;;;;;;;6.67;47.53;102688.88;4946874;27;130655;-63
2024/01/09 01:46:43;;;;;;;;;;;;;;;6.67;47.45;102686.22;4966355;27;99690;-66
2024/01/09 01:49:09;;;;;;;;;;;;;;;6.64;47.73;102685.59;4960416;28;105221;-66
2024/01/09 01:51:35;;;;;;;;;;;;;;;6.64;47.64;102698.13;4942488;27;124119;-65
2024/01/09 01:54:01;;;;;;;;;;;;;;;6.63;47.50;102696.47;4946434;27;99023;-66
2024/01/09 01:56:27;;;;;;;;;;;;;;;6.63;47.60;102693.78;4958869;27;120400;-63
2024/01/09 01:58:53;;;;;;;;;;;;;;;6.62;47.49;102692.97;4970055;27;98904;-64
2024/01/09 02:01:19;;;;;;;;;;;;;;;6.61;47.63;102685.94;4950093;28;130420;-63
2024/01/09 02:03:45;;;;;;;;;;;;;;;6.62;47.74;102692.13;4948798;27;128142;-64
2024/01/09 02:06:11;;;;;;;;;;;;;;;6.61;47.73;102691.31;4946577;27;99628;-66
2024/01/09 02:08:37;;;;;;;;;;;;;;;6.60;47.58;102692.34;4968985;27;111926;-66
2024/01/09 02:11:03;;;;;;;;;;;;;;;6.60;47.43;102697.69;4964585;27;99573;-63
2024/01/09 02:13:29;;;;;;;;;;;;;;;6.59;47.50;102696.00;4951101;27;98006;-66
2024/01/09 02:15:55;;;;;;;;;;;;;;;6.60;47.73;102696.84;4966112;27;98043;-66
2024/01/09 02:18:21;;;;;;;;;;;;;;;6.60;47.45;102696.84;4953448;27;98196;-63
2024/01/09 02:20:47;;;;;;;;;;;;;;;6.58;47.81;102696.22;4949950;27;99480;-64
2024/01/09 02:23:13;;;;;;;;;;;;;;;6.58;47.31;102701.56;4961355;27;101941;-63
2024/01/09 02:25:39;;;;;;;;;;;;;;;6.58;47.48;102693.53;4950729;27;100034;-63
2024/01/09 02:28:14;;;;;;;;;;;;;;;6.57;47.57;102692.69;4958347;27;99985;-66
2024/01/09 02:30:40;;;;;;;;;;;;;;;6.58;47.53;102690.84;4958714;27;101727;-66
2024/01/09 02:33:07;;;;;;;;;;;;;;;6.58;47.45;102696.22;4943794;27;98150;-67
2024/01/09 02:35:33;;;;;;;;;;;;;;;6.56;47.63;102683.00;4962506;27;99647;-64
2024/01/09 02:37:59;;;;;;;;;;;;;;;6.55;47.47;102686.69;4949865;27;99721;-67
2024/01/09 02:40:25;;;;;;;;;;;;;;;6.55;47.49;102694.72;4965395;27;99186;-67
2024/01/09 02:42:51;;;;;;;;;;;;;;;6.55;47.58;102689.38;4947005;27;97925;-67
2024/01/09 02:45:17;;;;;;;;;;;;;;;6.54;47.47;102697.59;4959268;28;99389;-63
2024/01/09 02:47:43;;;;;;;;;;;;;;;6.53;47.53;102696.78;4947207;27;128237;-63
2024/01/09 02:50:09;;;;;;;;;;;;;;;6.53;47.67;102693.28;4959371;28;100515;-63
2024/01/09 02:52:35;;;;;;;;;;;;;;;6.53;47.48;102695.94;4944116;28;100080;-63
2024/01/09 02:55:01;;;;;;;;;;;;;;;6.51;47.46;102698.78;4960435;27;98145;-63
2024/01/09 02:57:27;;;;;;;;;;;;;;;6.51;47.46;102698.78;4949930;27;121047;-66
2024/01/09 02:59:53;;;;;;;;;;;;;;;6.51;47.58;102692.59;4956705;27;97905;-66
2024/01/09 03:02:19;;;;;;;;;;;;;;;6.50;47.49;102693.63;4942159;28;99033;-63
2024/01/09 03:04:45;;;;;;;;;;;;;;;6.50;47.34;102697.13;4946287;27;98410;-63
2024/01/09 03:07:11;;;;;;;;;;;;;;;6.49;47.44;102695.50;4958893;27;98372;-66
2024/01/09 03:09:37;;;;;;;;;;;;;;;6.49;47.33;102695.50;4944437;27;98460;-66
2024/01/09 03:12:04;;;;;;;;;;;;;;;6.48;47.63;102696.47;4944316;27;98056;-66
2024/01/09 03:14:29;;;;;;;;;;;;;;;6.49;47.57;102691.97;4946751;28;98246;-63
2024/01/09 03:16:55;;;;;;;;;;;;;;;6.49;47.56;102700.03;4943504;27;104322;-66
2024/01/09 03:19:21;;;;;;;;;;;;;;;6.47;47.54;102696.69;4960134;27;98888;-66
2024/01/09 03:21:48;;;;;;;;;;;;;;;6.48;47.47;102704.53;4959791;27;99922;-67
2024/01/09 03:24:15;;;;;;;;;;;;;;;6.48;47.49;102698.34;4945150;27;98208;-63
2024/01/09 03:26:41;;;;;;;;;;;;;;;6.46;47.47;102701.22;4945524;27;99562;-67
2024/01/09 03:29:09;;;;;;;;;;;;;;;6.45;47.36;102704.91;4977354;27;119022;-66
2024/01/09 03:31:35;;;;;;;;;;;;;;;6.45;47.56;102702.22;4945226;27;98889;-63
2024/01/09 03:34:01;;;;;;;;;;;;;;;6.46;47.31;102697.69;4944710;28;101582;-63
2024/01/09 03:36:27;;;;;;;;;;;;;;;6.45;47.48;102699.56;4943529;27;98340;-66
2024/01/09 03:38:54;;;;;;;;;;;;;;;6.45;47.50;102694.19;4946719;27;126850;-67
2024/01/09 03:41:20;;;;;;;;;;;;;;;6.45;47.58;102696.03;4978419;27;100085;-66
2024/01/09 03:43:46;;;;;;;;;;;;;;;6.43;47.46;102696.22;4961422;27;98043;-63
2024/01/09 03:46:12;;;;;;;;;;;;;;;6.45;47.62;102693.38;4960615;27;99118;-64
2024/01/09 03:48:38;;;;;;;;;;;;;;;6.44;47.52;102692.50;4976847;27;98738;-63
2024/01/09 03:51:04;;;;;;;;;;;;;;;6.45;47.47;102693.38;4943960;27;98356;-67
2024/01/09 03:53:30;;;;;;;;;;;;;;;6.43;47.41;102690.03;4949115;27;97912;-66
2024/01/09 03:55:56;;;;;;;;;;;;;;;6.44;47.34;102687.16;4954572;27;115178;-63
2024/01/09 03:58:22;;;;;;;;;;;;;;;6.43;47.25;102680.13;4942967;27;97956;-63
2024/01/09 04:00:48;;;;;;;;;;;;;;;6.42;47.68;102681.16;4942612;27;100969;-67
2024/01/09 04:03:14;;;;;;;;;;;;;;;6.43;47.66;102687.34;4939325;27;98180;-68
2024/01/09 04:05:40;;;;;;;;;;;;;;;6.40;47.56;102688.53;4962383;27;98956;-67
2024/01/09 04:08:06;;;;;;;;;;;;;;;6.41;47.53;102690.22;4961084;27;98369;-63
2024/01/09 04:10:32;;;;;;;;;;;;;;;6.41;47.54;102694.75;4960856;27;99922;-66
2024/01/09 04:12:58;;;;;;;;;;;;;;;6.39;47.35;102692.25;4962559;27;98099;-64
2024/01/09 04:15:24;;;;;;;;;;;;;;;6.38;47.39;102694.09;4956002;27;127154;-63
2024/01/09 04:17:50;;;;;;;;;;;;;;;6.38;47.42;102699.47;4941520;27;116205;-63
2024/01/09 04:20:16;;;;;;;;;;;;;;;6.38;47.21;102704.81;4960068;27;98932;-67
2024/01/09 04:22:42;;;;;;;;;;;;;;;6.37;47.67;102705.84;4948682;27;99881;-67
2024/01/09 04:25:09;;;;;;;;;;;;;;;6.37;47.57;102705.00;4944522;27;99616;-63
2024/01/09 04:27:35;;;;;;;;;;;;;;;6.36;47.36;102704.16;4961491;27;98459;-66
2024/01/09 04:30:01;;;;;;;;;;;;;;;6.36;47.48;102703.31;4940482;27;97971;-63
2024/01/09 04:32:27;;;;;;;;;;;;;;;6.35;47.51;102712.38;4925849;28;103346;-66
2024/01/09 04:34:54;;;;;;;;;;;;;;;6.35;47.40;102701.66;4928423;28;128432;-63
2024/01/09 04:37:19;;;;;;;;;;;;;;;6.35;47.33;102696.31;4956788;28;101448;-66
2024/01/09 04:39:45;;;;;;;;;;;;;;;6.33;47.50;102701.03;4939305;28;99459;-67
2024/01/09 04:42:12;;;;;;;;;;;;;;;6.34;47.30;102705.38;4926758;28;107351;-63
2024/01/09 04:44:38;;;;;;;;;;;;;;;6.32;47.59;102696.69;4924788;28;100520;-64
2024/01/09 04:47:04;;;;;;;;;;;;;;;6.33;47.40;102696.50;4939843;28;97870;-63
2024/01/09 04:49:30;;;;;;;;;;;;;;;6.33;47.47;102701.03;4927459;28;108572;-66
2024/01/09 04:51:56;;;;;;;;;;;;;;;6.33;47.42;102701.03;4927555;28;98274;-63
2024/01/09 04:54:22;;;;;;;;;;;;;;;6.32;47.63;102707.38;4947861;28;98496;-63
2024/01/09 04:56:48;;;;;;;;;;;;;;;6.32;47.38;102708.22;4941437;28;98788;-64
2024/01/09 04:59:14;;;;;;;;;;;;;;;6.34;47.52;102705.38;4930323;28;118210;-66
2024/01/09 05:01:40;;;;;;;;;;;;;;;6.35;47.49;102709.72;4959341;28;117370;-63
2024/01/09 05:04:06;;;;;;;;;;;;;;;6.35;47.62;102710.53;4929863;28;120839;-63
2024/01/09 05:06:32;;;;;;;;;;;;;;;6.36;47.31;102712.19;4925585;28;100991;-66
2024/01/09 05:08:58;;;;;;;;;;;;;;;6.36;47.62;102714.88;4926548;28;103773;-64
2024/01/09 05:11:24;;;;;;;;;;;;;;;6.37;47.10;102715.72;4926130;28;98006;-63
2024/01/09 05:13:50;;;;;;;;;;;;;;;6.38;47.10;102725.41;4940708;28;111035;-66
2024/01/09 05:16:16;;;;;;;;;;;;;;;6.38;47.36;102733.47;4923323;28;97932;-64
2024/01/09 05:18:44;;;;;;;;;;;;;;;6.39;47.47;102717.19;4927003;28;110243;-63
2024/01/09 05:21:10;;;;;;;;;;;;;;;6.38;47.14;102718.22;4924121;28;99402;-66
2024/01/09 05:23:36;;;;;;;;;;;;;;;6.41;47.21;102721.56;4926691;28;120101;-64
2024/01/09 05:26:02;;;;;;;;;;;;;;;6.41;47.33;102724.22;4922690;28;100515;-66
2024/01/09 05:28:28;;;;;;;;;;;;;;;6.41;47.71;102729.59;4946868;28;98091;-63
2024/01/09 05:30:54;;;;;;;;;;;;;;;6.41;47.44;102730.41;4932611;28;98193;-63
2024/01/09 05:33:20;;;;;;;;;;;;;;;6.42;47.23;102723.22;4956084;28;112868;-66
2024/01/09 05:35:46;;;;;;;;;;;;;;;6.42;47.50;102728.56;4945596;28;98542;-66
2024/01/09 05:38:12;;;;;;;;;;;;;;;6.41;47.20;102727.75;4926390;28;99335;-63
2024/01/09 05:40:39;;;;;;;;;;;;;;;6.42;47.43;102721.34;4961298;28;116201;-64
2024/01/09 05:43:04;;;;;;;;;;;;;;;6.42;47.27;102728.56;4948469;28;98192;-66
2024/01/09 05:45:30;;;;;;;;;;;;;;;6.42;47.25;102732.06;4926630;28;129453;-66
2024/01/09 05:47:56;;;;;;;;;;;;;;;6.41;47.30;102733.09;4927105;28;118831;-66
2024/01/09 05:50:22;;;;;;;;;;;;;;;6.42;47.54;102728.56;4925456;28;98554;-63
2024/01/09 05:52:48;;;;;;;;;;;;;;;6.40;47.26;102728.72;4952975;28;118972;-67
2024/01/09 05:55:15;;;;;;;;;;;;;;;6.38;47.43;102728.94;4928322;28;98001;-63
2024/01/09 05:57:41;;;;;;;;;;;;;;;6.39;47.36;102724.41;4925091;28;98384;-63
2024/01/09 06:00:08;;;;;;;;;;;;;;;6.38;47.38;102726.25;4943611;28;98593;-66
2024/01/09 06:02:34;;;;;;;;;;;;;;;6.37;47.58;102726.44;4924476;28;99841;-67
2024/01/09 06:05:00;;;;;;;;;;;;;;;6.37;47.29;102718.41;4929249;28;100169;-64
2024/01/09 06:07:26;;;;;;;;;;;;;;;6.37;47.33;102727.28;4939857;28;98337;-67
2024/01/09 06:09:52;;;;;;;;;;;;;;;6.36;47.44;102722.91;4920090;28;117891;-63
2024/01/09 06:12:18;;;;;;;;;;;;;;;6.36;47.32;102714.03;4928424;28;98409;-67
2024/01/09 06:14:44;;;;;;;;;;;;;;;6.35;47.47;102717.75;4927994;28;98088;-67
2024/01/09 06:17:12;;;;;;;;;;;;;;;6.35;47.23;102721.25;4941443;28;98427;-63
2024/01/09 06:19:38;;;;;;;;;;;;;;;6.34;47.37;102724.13;4939926;28;98153;-63
2024/01/09 06:22:04;;;;;;;;;;;;;;;6.32;47.30;102732.34;4922239;28;100052;-66
2024/01/09 06:24:29;;;;;;;;;;;;;;;6.33;47.30;102720.63;4924639;28;98337;-67
2024/01/09 06:26:55;;;;;;;;;;;;;;;6.33;47.12;102733.19;4953997;28;128066;-66
2024/01/09 06:29:22;;;;;;;;;;;;;;;6.34;47.40;102729.47;4920756;28;98301;-66
2024/01/09 06:31:48;;;;;;;;;;;;;;;6.31;47.45;102727.16;4921143;28;98384;-63
2024/01/09 06:34:14;;;;;;;;;;;;;;;6.32;47.40;102728.81;4916179;28;105403;-63
2024/01/09 06:36:40;;;;;;;;;;;;;;;6.34;47.14;102734.84;4936636;28;110198;-67
2024/01/09 06:39:06;;;;;;;;;;;;;;;6.34;47.52;102740.19;4934171;28;98496;-66
2024/01/09 06:41:32;;;;;;;;;;;;;;;6.33;47.50;102731.34;4920174;28;98564;-67
2024/01/09 06:43:58;;;;;;;;;;;;;;;6.33;47.50;102731.34;4938783;28;128221;-63
2024/01/09 06:46:24;;;;;;;;;;;;;;;6.32;47.26;102731.50;4936222;28;98410;-66
2024/01/09 06:48:50;;;;;;;;;;;;;;;6.33;47.07;102739.38;4938302;28;106142;-63
2024/01/09 06:51:16;;;;;;;;;;;;;;;6.33;47.27;102736.69;4916187;28;122470;-66
2024/01/09 06:53:42;;;;;;;;;;;;;;;6.33;47.08;102739.38;4934188;28;99033;-66
2024/01/09 06:56:09;;;;;;;;;;;;;;;6.33;47.15;102739.38;4920487;28;99165;-67
2024/01/09 06:58:35;;;;;;;;;;;;;;;6.33;47.35;102741.22;4932022;28;98358;-63
2024/01/09 07:01:01;;;;;;;;;;;;;;;6.32;46.98;102745.72;4921954;28;99236;-67
2024/01/09 07:03:27;;;;;;;;;;;;;;;6.33;47.25;102751.94;4920107;28;128591;-66
2024/01/09 07:05:53;;;;;;;;;;;;;;;6.33;47.30;102755.44;4920899;28;113791;-64
2024/01/09 07:08:19;;;;;;;;;;;;;;;6.32;47.39;102753.75;4921465;28;98137;-67
2024/01/09 07:10:44;;;;;;;;;;;;;;;6.33;47.06;102744.72;4919745;28;111534;-63
2024/01/09 07:13:10;;;;;;;;;;;;;;;6.32;47.19;102758.28;4935360;28;102979;-67
2024/01/09 07:15:36;;;;;;;;;;;;;;;6.34;47.44;102758.94;4920277;28;107168;-67
2024/01/09 07:18:03;;;;;;;;;;;;;;;6.34;47.39;102762.47;4044332;28;10000417;-67
2024/01/09 07:20:29;;;;;;;;;;;;;;;6.34;47.42;102762.47;4938223;28;99621;-67
2024/01/09 07:22:55;;;;;;;;;;;;;;;6.35;47.72;102758.75;4934298;28;98229;-66
2024/01/09 07:25:21;;;;;;;;;;;;;;;6.36;47.37;102763.09;4934095;28;99426;-66
2024/01/09 07:27:47;;;;;;;;;;;;;;;6.39;47.04;102777.97;4917858;28;113314;-63
2024/01/09 07:30:14;;;;;;;;;;;;;;;6.40;46.98;102768.91;4933016;28;98959;-66
2024/01/09 07:32:40;;;;;;;;;;;;;;;6.42;47.27;102772.25;4923608;28;98064;-63
2024/01/09 07:35:06;;;;;;;;;;;;;;;6.43;47.18;102773.91;4920619;28;112160;-66
2024/01/09 07:37:32;;;;;;;;;;;;;;;6.46;46.90;102773.56;4942530;28;107641;-67
2024/01/09 07:39:58;;;;;;;;;;;;;;;6.47;47.22;102772.53;4925541;28;98323;-63
2024/01/09 07:42:24;;;;;;;;;;;;;;;6.50;46.99;102765.97;4932189;28;98062;-67
2024/01/09 07:44:50;;;;;;;;;;;;;;;6.54;46.97;102770.78;4922855;28;126647;-66
2024/01/09 07:47:16;;;;;;;;;;;;;;;6.58;46.88;102774.75;4921877;28;99716;-67
2024/01/09 07:49:42;;;;;;;;;;;;;;;6.62;47.08;102775.22;4925071;28;99230;-63
2024/01/09 07:52:09;;;;;;;;;;;;;;;6.68;47.06;102770.97;4925678;28;98347;-66
2024/01/09 07:54:35;;;;;;;;;;;;;;;6.74;47.04;102770.22;4920314;28;98784;-66
2024/01/09 07:57:01;;;;;;;;;;;;;;;6.82;46.91;102776.31;4940705;28;99739;-63
2024/01/09 07:59:27;;;;;;;;;;;;;;;6.94;46.50;102782.03;4917617;28;114832;-66
2024/01/09 08:01:56;;;;;;;;;;;;;;;7.07;46.75;102776.84;4925496;28;98251;-66
2024/01/09 08:04:23;;;;;;;;;;;;;;;7.15;46.72;102775.88;4921267;28;99835;-66
2024/01/09 08:06:52;;;;;;;;;;;;;;;7.26;47.06;102774.56;4921098;28;102622;-63
2024/01/09 08:09:18;;;;;;;;;;;;;;;7.42;46.46;102773.50;4935490;28;99295;-64
2024/01/09 08:11:45;;;;;;;;;;;;;;;7.55;46.21;102771.81;4924520;28;97991;-63
2024/01/09 08:14:12;;;;;;;;;;;;;;;7.69;46.23;102769.22;4923404;28;98339;-63
2024/01/09 08:16:38;;;;;;;;;;;;;;;8.06;45.87;102770.81;4923386;28;98290;-67
2024/01/09 08:19:04;;;;;;;;;;;;;;;8.63;45.93;102771.59;4922258;28;99934;-66
2024/01/09 08:21:31;;;;;;;;;;;;;;;9.23;45.31;102759.22;4925918;28;98384;-63
2024/01/09 08:23:58;;;;;;;;;;;;;;;9.66;45.12;102757.03;4938508;28;98829;-63
2024/01/09 08:26:24;;;;;;;;;;;;;;;10.22;44.67;102766.56;4937742;28;98700;-66
2024/01/09 08:28:50;;;;;;;;;;;;;;;10.80;44.32;102751.28;4918635;28;99458;-66
2024/01/09 08:31:17;;;;;;;;;;;;;;;11.21;44.43;102758.16;4925030;28;99904;-63
2024/01/09 08:33:43;;;;;;;;;;;;;;;11.52;44.22;102757.38;4937115;28;100029;-63
2024/01/09 08:36:09;;;;;;;;;;;;;;;11.81;44.50;102741.56;4921413;28;117948;-66
2024/01/09 08:38:35;;;;;;;;;;;;;;;12.14;44.51;102741.28;4923549;28;99326;-63
2024/01/09 08:41:02;;;;;;;;;;;;;;;12.50;44.74;102740.50;4938610;28;99575;-63
2024/01/09 08:43:28;;;;;;;;;;;;;;;12.86;44.17;102740.72;4920789;28;98403;-66
2024/01/09 08:45:54;;;;;;;;;;;;;;;13.18;44.27;102752.16;4937078;28;99478;-66
2024/01/09 08:48:20;;;;;;;;;;;;;;;13.48;44.16;102747.56;4916806;28;105937;-66
2024/01/09 08:50:47;;;;;;;;;;;;;;;13.80;44.37;102743.75;4919883;28;108967;-66
2024/01/09 08:53:13;;;;;;;;;;;;;;;14.16;44.35;102734.56;4939503;28;98295;-63
2024/01/09 08:55:39;;;;;;;;;;;;;;;14.52;44.39;102743.50;4930526;28;120397;-63
2024/01/09 08:58:05;;;;;;;;;;;;;;;14.90;43.91;102734.78;4921777;28;98853;-66
2024/01/09 09:00:31;;;;;;;;;;;;;;;15.30;43.80;102731.19;4934102;28;117465;-66
2024/01/09 09:02:58;;;;;;;;;;;;;;;15.70;43.63;102728.38;4936901;28;98533;-63
2024/01/09 09:05:24;;;;;;;;;;;;;;;16.03;43.57;102727.50;4921218;28;98263;-63
2024/01/09 09:07:50;;;;;;;;;;;;;;;16.18;43.62;102726.91;4935109;28;98478;-63
2024/01/09 09:10:17;;;;;;;;;;;;;;;16.31;43.82;102725.72;4918638;28;98789;-64
2024/01/09 09:12:43;;;;;;;;;;;;;;;16.41;43.99;102731.31;4921140;28;98460;-66
2024/01/09 09:15:09;;;;;;;;;;;;;;;16.51;43.96;102730.63;4916687;28;98110;-63
2024/01/09 09:17:35;;;;;;;;;;;;;;;16.56;44.02;102733.41;4934850;28;99698;-66
2024/01/09 09:20:04;;;;;;;;;;;;;;;16.57;44.28;102735.88;4916764;28;98301;-66
2024/01/09 09:22:30;;;;;;;;;;;;;;;16.54;44.38;102739.09;4935265;28;98337;-64
2024/01/09 09:24:56;;;;;;;;;;;;;;;16.50;44.67;102743.41;4930857;28;129367;-63
2024/01/09 09:27:22;;;;;;;;;;;;;;;16.47;44.59;102741.22;4919245;28;98486;-64
2024/01/09 09:29:48;;;;;;;;;;;;;;;16.45;44.79;102744.16;4933402;28;98473;-67
2024/01/09 09:32:14;;;;;;;;;;;;;;;16.41;44.79;102742.19;4922507;28;104057;-67
2024/01/09 09:34:40;;;;;;;;;;;;;;;16.33;44.94;102745.34;4916321;28;114503;-66
2024/01/09 09:37:07;;;;;;;;;;;;;;;16.24;45.10;102738.72;4919916;28;103092;-63
2024/01/09 09:39:33;;;;;;;;;;;;;;;16.28;45.06;102748.00;4923813;28;98425;-66
2024/01/09 09:41:59;;;;;;;;;;;;;;;16.21;45.06;102740.03;4938063;28;107828;-63
2024/01/09 09:44:25;;;;;;;;;;;;;;;16.19;45.13;102737.56;4921598;28;99950;-63
2024/01/09 09:46:51;;;;;;;;;;;;;;;16.63;44.61;102740.31;4921759;28;98008;-63
2024/01/09 09:49:23;;;;;;;;;;;;;;;16.81;44.44;102735.66;4947703;28;98382;-66
2024/01/09 09:51:54;;;;;;;;;;;;;;;16.28;45.11;102737.94;4938349;28;98522;-66
2024/01/09 09:54:22;;;;;;;;;;;;;;;15.89;45.44;102750.69;4920356;28;98437;-66
2024/01/09 09:56:48;;;;;;;;;;;;;;;15.59;45.64;102748.25;4933369;28;99153;-66
2024/01/09 09:59:15;;;;;;;;;;;;;;;15.34;45.67;102744.03;4925823;28;98257;-63
2024/01/09 10:01:42;;;;;;;;;;;;;;;15.10;45.87;102748.75;4923131;28;119957;-64
2024/01/09 10:04:08;;;;;;;;;;;;;;;14.85;46.01;102743.66;4937476;28;98839;-63
2024/01/09 10:06:34;;;;;;;;;;;;;;;14.61;46.14;102747.50;4956674;28;103750;-66
2024/01/09 10:09:00;;;;;;;;;;;;;;;14.39;46.40;102742.69;4938008;28;98131;-66
2024/01/09 10:11:26;;;;;;;;;;;;;;;14.17;46.26;102744.34;4920153;28;113319;-66
2024/01/09 10:13:52;;;;;;;;;;;;;;;13.94;46.31;102737.03;4940881;28;115930;-63
2024/01/09 10:16:19;;;;;;;;;;;;;;;13.70;46.59;102741.59;4922545;28;115796;-63
2024/01/09 10:18:45;;;;;;;;;;;;;;;13.48;46.31;102744.03;4925331;28;98081;-66
2024/01/09 10:21:11;;;;;;;;;;;;;;;13.26;46.33;102747.25;4938996;28;98409;-63
2024/01/09 10:23:39;;;;;;;;;;;;;;;13.09;46.45;102745.41;4938786;28;98444;-63
2024/01/09 10:26:09;;;;;;;;;;;;;;;12.89;46.30;102732.09;4920006;28;98976;-63
2024/01/09 10:28:36;;;;;;;;;;;;;;;12.70;46.49;102734.03;4924832;28;98120;-63
2024/01/09 10:31:05;;;;;;;;;;;;;;;12.55;46.47;102725.47;4924303;28;100353;-66
2024/01/09 10:33:31;;;;;;;;;;;;;;;12.38;46.73;102723.38;4922070;28;101483;-66
2024/01/09 10:35:57;;;;;;;;;;;;;;;12.24;46.82;102724.56;4938487;28;100284;-63
2024/01/09 10:38:24;;;;;;;;;;;;;;;12.10;46.53;102728.44;4939944;28;98175;-63
2024/01/09 10:40:55;;;;;;;;;;;;;;;11.96;46.49;102722.34;4943868;28;98200;-63
2024/01/09 10:43:24;;;;;;;;;;;;;;;11.85;46.75;102723.06;4927788;28;98995;-66
2024/01/09 10:45:53;;;;;;;;;;;;;;;11.72;46.64;102713.16;4924025;28;100149;-66
2024/01/09 10:48:22;;;;;;;;;;;;;;;11.62;46.61;102710.13;4942920;28;98336;-63
2024/01/09 10:50:52;;;;;;;;;;;;;;;11.52;46.73;102710.63;4956453;28;98483;-66
2024/01/09 10:53:23;;;;;;;;;;;;;;;11.41;46.65;102708.63;4939273;28;99594;-63
2024/01/09 10:55:49;;;;;;;;;;;;;;;11.34;46.58;102707.84;4938706;28;98082;-66
2024/01/09 10:58:15;;;;;;;;;;;;;;;11.25;46.55;102708.09;4954342;28;98149;-63
2024/01/09 11:00:41;;;;;;;;;;;;;;;11.20;46.63;102702.53;4924420;28;127654;-66
2024/01/09 11:03:07;;;;;;;;;;;;;;;11.20;46.64;102704.38;4935024;28;98080;-63
2024/01/09 11:05:34;;;;;;;;;;;;;;;11.21;46.72;102696.09;4921318;28;98368;-66
2024/01/09 11:08:00;;;;;;;;;;;;;;;11.20;46.80;102689.03;4941219;28;98328;-66
2024/01/09 11:10:26;;;;;;;;;;;;;;;11.19;46.71;102690.06;4921045;28;117078;-66
2024/01/09 11:12:52;;;;;;;;;;;;;;;11.17;46.72;102691.34;4937546;28;128970;-66
2024/01/09 11:15:26;;;;;;;;;;;;;;;11.15;46.65;102688.84;4941770;28;102949;-63
2024/01/09 11:18:13;;;;;;;;;;;;;;;11.11;46.76;102684.91;4922382;28;98127;-63
2024/01/09 11:20:39;;;;;;;;;;;;;;;11.07;46.63;102684.53;4938389;28;98441;-67
2024/01/09 11:23:05;;;;;;;;;;;;;;;11.04;46.67;102681.44;4934078;28;128616;-64
2024/01/09 11:25:33;;;;;;;;;;;;;;;11.00;46.31;102675.66;4922585;28;123382;-63
2024/01/09 11:28:00;;;;;;;;;;;;;;;10.95;46.65;102664.66;4925582;28;98349;-66
2024/01/09 11:30:27;;;;;;;;;;;;;;;10.91;46.71;102659.94;4932990;28;99167;-64
2024/01/09 11:32:53;;;;;;;;;;;;;;;10.86;46.72;102659.75;4954407;28;98279;-63
2024/01/09 11:35:20;;;;;;;;;;;;;;;10.79;46.79;102655.22;4924094;28;98245;-67
2024/01/09 11:37:48;;;;;;;;;;;;;;;10.75;46.65;102647.78;4939110;28;98764;-63
2024/01/09 11:40:15;;;;;;;;;;;;;;;10.68;46.57;102649.66;4935163;28;99134;-63
2024/01/09 11:42:49;;;;;;;;;;;;;;;10.64;47.05;102645.75;4937520;28;98406;-66
2024/01/09 11:45:22;;;;;;;;;;;;;;;10.57;46.88;102649.31;4938426;28;98086;-66
2024/01/09 11:47:49;;;;;;;;;;;;;;;10.53;46.90;102647.25;4942406;28;98528;-66
2024/01/09 11:50:15;;;;;;;;;;;;;;;10.48;46.91;102653.28;4940059;28;111856;-63
2024/01/09 11:52:42;;;;;;;;;;;;;;;10.41;46.91;102644.38;4920173;28;98611;-63
2024/01/09 11:55:11;;;;;;;;;;;;;;;10.37;46.94;102645.03;4936580;28;98264;-67
2024/01/09 11:57:39;;;;;;;;;;;;;;;10.31;46.56;102634.06;4959769;28;99838;-67
2024/01/09 12:00:06;;;;;;;;;;;;;;;10.26;46.77;102641.97;4936535;28;98627;-63
2024/01/09 12:02:38;;;;;;;;;;;;;;;10.22;47.06;102648.81;4922136;28;98213;-66
2024/01/09 12:05:08;;;;;;;;;;;;;;;10.16;46.86;102638.03;4920147;28;98482;-63
2024/01/09 12:07:40;;;;;;;;;;;;;;;10.13;46.89;102641.16;4918374;28;98011;-66
2024/01/09 12:10:08;;;;;;;;;;;;;;;10.07;46.82;102643.66;4937653;28;98377;-63
2024/01/09 12:12:34;;;;;;;;;;;;;;;10.05;46.53;102644.91;4938763;28;98415;-64
2024/01/09 12:15:01;;;;;;;;;;;;;;;10.00;46.71;102633.94;4925172;28;99142;-67
2024/01/09 12:17:33;;;;;;;;;;;;;;;9.96;46.83;102633.53;4946589;28;97957;-66
2024/01/09 12:20:00;;;;;;;;;;;;;;;9.92;46.88;102634.16;4927444;28;99529;-67
2024/01/09 12:22:26;;;;;;;;;;;;;;;9.88;46.67;102633.75;4921006;28;98121;-64
2024/01/09 12:24:52;;;;;;;;;;;;;;;9.86;46.91;102635.00;4921472;28;99893;-66
2024/01/09 12:27:20;;;;;;;;;;;;;;;9.82;46.43;102634.56;4934962;28;98200;-63
2024/01/09 12:29:46;;;;;;;;;;;;;;;9.77;46.90;102624.44;4937918;28;99816;-63
2024/01/09 12:32:15;;;;;;;;;;;;;;;9.74;46.57;102621.34;4924777;28;99575;-66
2024/01/09 12:34:41;;;;;;;;;;;;;;;9.70;46.54;102623.63;4925290;28;98996;-63
2024/01/09 12:37:08;;;;;;;;;;;;;;;9.66;46.44;102621.56;4937705;28;98062;-66